createdAt,value
2022-12-06T00:01:21.745Z,11.70
2022-12-06T00:03:53.134Z,9.33
2022-12-06T00:06:21.593Z,10.10
2022-12-06T00:08:49.661Z,7.77
2022-12-06T00:11:22.749Z,11.93
2022-12-06T00:13:54.391Z,9.80
2022-12-06T00:16:21.894Z,8.83
2022-12-06T00:18:49.117Z,13.00
2022-12-06T00:21:25.511Z,11.07
2022-12-06T00:23:58.486Z,8.17
2022-12-06T00:26:26.173Z,8.97
2022-12-06T00:28:55.668Z,10.10
2022-12-06T00:31:24.752Z,10.33
2022-12-06T00:33:52.657Z,10.23
2022-12-06T00:36:21.995Z,9.43
2022-12-06T00:38:49.730Z,8.67
2022-12-06T00:41:22.598Z,8.83
2022-12-06T00:43:50.384Z,10.80
2022-12-06T00:46:21.231Z,11.10
2022-12-06T00:48:49.356Z,11.07
2022-12-06T00:51:18.180Z,8.50
2022-12-06T00:53:46.117Z,10.73
2022-12-06T00:56:13.386Z,10.80
2022-12-06T00:58:40.701Z,13.23
2022-12-06T01:01:16.742Z,7.13
2022-12-06T01:03:45.404Z,10.33
2022-12-06T01:06:15.454Z,11.07
2022-12-06T01:08:43.240Z,7.43
2022-12-06T01:11:11.366Z,6.93
2022-12-06T01:13:38.092Z,11.90
2022-12-06T01:16:14.240Z,6.53
2022-12-06T01:18:42.267Z,7.73
2022-12-06T01:21:19.885Z,8.97
2022-12-06T01:23:48.134Z,8.53
2022-12-06T01:26:36.906Z,8.73
2022-12-06T01:29:04.665Z,8.40
2022-12-06T01:31:37.771Z,9.23
2022-12-06T01:34:06.893Z,9.63
2022-12-06T01:36:33.636Z,8.87
2022-12-06T01:39:01.623Z,7.27
2022-12-06T01:41:28.730Z,9.27
2022-12-06T01:43:56.423Z,9.23
2022-12-06T01:46:44.189Z,8.80
2022-12-06T01:49:13.890Z,10.77
2022-12-06T01:51:49.617Z,11.90
2022-12-06T01:54:19.385Z,10.20
2022-12-06T01:56:47.476Z,13.40
2022-12-06T01:59:15.030Z,7.43
2022-12-06T02:01:42.176Z,10.87
2022-12-06T02:04:09.760Z,9.73
2022-12-06T02:06:38.822Z,11.30
2022-12-06T02:09:07.717Z,10.70
2022-12-06T02:11:35.897Z,8.00
2022-12-06T02:14:09.637Z,9.57
2022-12-06T02:17:01.131Z,10.47
2022-12-06T02:19:34.038Z,8.83
2022-12-06T02:22:17.540Z,8.87
2022-12-06T02:25:15.350Z,9.33
2022-12-06T02:27:54.162Z,6.90
2022-12-06T02:30:51.250Z,9.60
2022-12-06T02:33:31.651Z,10.13
2022-12-06T02:36:05.671Z,9.07
2022-12-06T02:38:44.208Z,11.80
2022-12-06T02:41:22.361Z,9.33
2022-12-06T02:43:55.307Z,11.20
2022-12-06T02:46:24.417Z,8.43
2022-12-06T02:48:53.208Z,12.77
2022-12-06T02:51:20.595Z,10.53
2022-12-06T02:53:51.888Z,6.97
2022-12-06T02:56:19.191Z,8.17
2022-12-06T02:58:46.895Z,8.53
2022-12-06T03:01:20.404Z,8.07
2022-12-06T03:03:56.099Z,10.27
2022-12-06T03:06:34.627Z,8.17
2022-12-06T03:09:16.540Z,5.00
2022-12-06T03:12:11.334Z,7.23
2022-12-06T03:14:46.318Z,8.77
2022-12-06T03:17:39.606Z,9.20
2022-12-06T03:20:42.560Z,7.83
2022-12-06T03:23:16.490Z,7.10
2022-12-06T03:25:46.097Z,4.10
2022-12-06T03:28:15.487Z,7.63
2022-12-06T03:30:46.632Z,9.10
2022-12-06T03:33:15.713Z,7.30
2022-12-06T03:35:44.871Z,5.90
2022-12-06T03:38:18.227Z,6.60
2022-12-06T03:40:49.423Z,8.83
2022-12-06T03:43:16.352Z,11.80
2022-12-06T03:45:55.252Z,5.37
2022-12-06T03:48:29.680Z,4.50
2022-12-06T03:51:05.140Z,5.10
2022-12-06T03:53:32.806Z,5.50
2022-12-06T03:55:59.866Z,5.57
2022-12-06T03:58:26.830Z,5.97
2022-12-06T04:00:53.682Z,7.37
2022-12-06T04:03:20.492Z,6.57
2022-12-06T04:05:47.255Z,5.00
2022-12-06T04:08:15.089Z,4.47
2022-12-06T04:10:42.035Z,5.27
2022-12-06T04:13:08.966Z,6.37
2022-12-06T04:15:39.026Z,4.60
2022-12-06T04:18:17.009Z,9.20
2022-12-06T04:21:18.761Z,6.20
2022-12-06T04:23:48.001Z,9.63
2022-12-06T04:26:20.925Z,5.23
2022-12-06T04:29:07.077Z,3.97
2022-12-06T04:31:52.639Z,4.77
2022-12-06T04:34:38.242Z,5.43
2022-12-06T04:37:23.625Z,4.10
2022-12-06T04:39:50.338Z,5.77
2022-12-06T04:42:36.071Z,6.47
2022-12-06T04:45:03.751Z,7.13
2022-12-06T04:47:31.187Z,3.63
2022-12-06T04:49:58.426Z,8.57
2022-12-06T04:52:25.406Z,4.70
2022-12-06T04:54:52.129Z,4.60
2022-12-06T04:57:18.893Z,4.07
2022-12-06T04:59:46.508Z,7.23
2022-12-06T05:02:15.470Z,5.00
2022-12-06T05:04:42.672Z,4.23
2022-12-06T05:07:11.394Z,4.93
2022-12-06T05:09:38.459Z,3.47
2022-12-06T05:12:05.417Z,4.37
2022-12-06T05:14:32.164Z,4.10
2022-12-06T05:16:59.009Z,4.40
2022-12-06T05:19:25.899Z,5.67
2022-12-06T05:21:52.639Z,8.70
2022-12-06T05:24:19.346Z,6.00
2022-12-06T05:26:46.128Z,4.63
2022-12-06T05:29:12.859Z,5.77
2022-12-06T05:31:39.605Z,4.83
2022-12-06T05:34:06.360Z,4.27
2022-12-06T05:36:33.107Z,4.23
2022-12-06T05:38:59.784Z,5.13
2022-12-06T05:41:26.632Z,6.83
2022-12-06T05:43:53.445Z,4.87
2022-12-06T05:46:20.302Z,7.13
2022-12-06T05:48:47.009Z,4.87
2022-12-06T05:51:14.143Z,3.40
2022-12-06T05:53:41.394Z,5.83
2022-12-06T05:56:11.121Z,4.20
2022-12-06T05:58:38.190Z,3.67
2022-12-06T06:01:06.899Z,5.47
2022-12-06T06:03:34.302Z,2.30
2022-12-06T06:06:01.889Z,4.50
2022-12-06T06:08:29.628Z,3.07
2022-12-06T06:10:57.338Z,3.20
2022-12-06T06:13:24.131Z,3.03
2022-12-06T06:15:51.005Z,3.13
2022-12-06T06:18:18.762Z,5.87
2022-12-06T06:20:50.205Z,3.60
2022-12-06T06:23:17.082Z,6.40
2022-12-06T06:25:44.126Z,5.10
2022-12-06T06:28:10.997Z,4.97
2022-12-06T06:30:37.686Z,6.57
2022-12-06T06:33:04.615Z,4.93
2022-12-06T06:35:31.422Z,3.00
2022-12-06T06:37:58.190Z,3.37
2022-12-06T06:40:25.017Z,4.37
2022-12-06T06:42:52.019Z,3.43
2022-12-06T06:45:22.572Z,3.03
2022-12-06T06:47:51.961Z,6.63
2022-12-06T06:50:18.745Z,3.27
2022-12-06T06:52:45.514Z,5.97
2022-12-06T06:55:12.653Z,3.67
2022-12-06T06:57:41.171Z,3.40
2022-12-06T07:00:09.378Z,5.03
2022-12-06T07:02:37.274Z,7.03
2022-12-06T07:05:04.227Z,4.10
2022-12-06T07:07:31.591Z,3.80
2022-12-06T07:09:58.922Z,2.77
2022-12-06T07:12:25.854Z,3.57
2022-12-06T07:14:52.590Z,6.30
2022-12-06T07:17:19.302Z,4.80
2022-12-06T07:19:46.078Z,2.30
2022-12-06T07:22:12.762Z,5.00
2022-12-06T07:24:42.832Z,5.37
2022-12-06T07:27:10.371Z,4.47
2022-12-06T07:29:37.218Z,3.20
2022-12-06T07:32:04.324Z,6.77
2022-12-06T07:34:31.197Z,2.60
2022-12-06T07:36:57.985Z,4.47
2022-12-06T07:39:25.176Z,4.73
2022-12-06T07:42:10.402Z,5.57
2022-12-06T07:45:04.541Z,5.27
2022-12-06T07:47:49.713Z,6.17
2022-12-06T07:50:19.387Z,3.30
2022-12-06T07:52:48.090Z,3.50
2022-12-06T07:55:15.747Z,4.10
2022-12-06T07:57:43.977Z,5.20
2022-12-06T08:00:14.349Z,4.90
2022-12-06T08:02:41.162Z,3.53
2022-12-06T08:05:08.405Z,6.23
2022-12-06T08:07:35.230Z,2.57
2022-12-06T08:10:02.806Z,4.73
2022-12-06T08:12:32.250Z,3.47
2022-12-06T08:15:00.039Z,4.23
2022-12-06T08:17:27.488Z,3.47
2022-12-06T08:19:54.196Z,6.87
2022-12-06T08:22:20.991Z,3.37
2022-12-06T08:24:48.022Z,5.53
2022-12-06T08:27:14.844Z,4.97
2022-12-06T08:29:41.565Z,4.70
2022-12-06T08:32:08.341Z,2.93
2022-12-06T08:34:35.075Z,4.90
2022-12-06T08:37:03.773Z,5.50
2022-12-06T08:39:31.135Z,5.50
2022-12-06T08:41:58.762Z,4.50
2022-12-06T08:44:27.739Z,4.37
2022-12-06T08:46:55.643Z,5.20
2022-12-06T08:49:23.474Z,6.93
2022-12-06T08:51:50.310Z,4.23
2022-12-06T08:54:19.804Z,5.13
2022-12-06T08:56:46.794Z,4.53
2022-12-06T08:59:14.015Z,6.67
2022-12-06T09:01:41.379Z,6.20
2022-12-06T09:04:10.435Z,6.20
2022-12-06T09:06:39.812Z,7.13
2022-12-06T09:09:07.518Z,5.43
2022-12-06T09:11:34.282Z,8.90
2022-12-06T09:14:01.026Z,7.13
2022-12-06T09:16:27.994Z,5.73
2022-12-06T09:18:54.933Z,8.33
2022-12-06T09:21:24.750Z,5.37
2022-12-06T09:23:54.973Z,6.17
2022-12-06T09:26:21.786Z,4.23
2022-12-06T09:28:52.025Z,6.20
2022-12-06T09:31:19.552Z,9.10
2022-12-06T09:33:47.841Z,4.30
2022-12-06T09:36:24.867Z,6.63
2022-12-06T09:39:05.619Z,6.60
2022-12-06T09:41:50.464Z,6.03
2022-12-06T09:44:34.326Z,6.97
2022-12-06T09:47:19.145Z,5.17
2022-12-06T09:49:55.224Z,5.07
2022-12-06T09:52:49.244Z,5.03
2022-12-06T09:55:47.278Z,7.77
2022-12-06T09:58:38.412Z,4.57
2022-12-06T10:01:31.353Z,4.07
2022-12-06T10:04:22.833Z,4.00
2022-12-06T10:06:49.642Z,5.97
2022-12-06T10:09:56.013Z,2.80
2022-12-06T10:12:28.586Z,3.33
2022-12-06T10:15:04.070Z,5.37
2022-12-06T10:17:43.364Z,5.20
2022-12-06T10:20:42.575Z,5.40
2022-12-06T10:23:38.492Z,7.00
2022-12-06T10:26:14.220Z,3.80
2022-12-06T10:28:45.174Z,5.00
2022-12-06T10:31:24.306Z,2.67
2022-12-06T10:33:56.378Z,3.77
2022-12-06T10:36:36.756Z,6.30
2022-12-06T10:39:13.002Z,4.67
2022-12-06T10:42:15.649Z,6.23
2022-12-06T10:44:59.294Z,5.50
2022-12-06T10:47:41.722Z,5.03
2022-12-06T10:50:23.128Z,7.40
2022-12-06T10:53:00.252Z,6.17
2022-12-06T10:55:36.043Z,6.53
2022-12-06T10:58:09.824Z,6.53
2022-12-06T11:00:49.833Z,6.87
2022-12-06T11:03:35.130Z,5.63
2022-12-06T11:06:12.814Z,7.00
2022-12-06T11:08:46.770Z,6.90
2022-12-06T11:11:19.726Z,6.00
2022-12-06T11:13:53.374Z,8.63
2022-12-06T11:16:22.736Z,5.50
2022-12-06T11:18:50.082Z,6.63
2022-12-06T11:21:43.721Z,8.07
2022-12-06T11:24:15.832Z,8.47
2022-12-06T11:26:52.006Z,7.00
2022-12-06T11:29:19.364Z,5.63
2022-12-06T11:31:48.276Z,6.70
2022-12-06T11:34:36.418Z,4.17
2022-12-06T11:37:04.273Z,7.93
2022-12-06T11:39:31.756Z,6.23
2022-12-06T11:42:02.480Z,4.30
2022-12-06T11:44:50.766Z,4.43
2022-12-06T11:47:21.908Z,6.77
2022-12-06T11:49:52.558Z,9.57
2022-12-06T11:52:34.011Z,6.67
2022-12-06T11:55:15.854Z,6.90
2022-12-06T11:57:49.980Z,13.27
2022-12-06T12:00:22.884Z,8.50
2022-12-06T12:02:53.049Z,5.50
2022-12-06T12:05:25.806Z,5.93
2022-12-06T12:08:00.104Z,7.40
2022-12-06T12:10:43.179Z,6.20
2022-12-06T12:13:31.509Z,5.30
2022-12-06T12:16:01.338Z,8.17
2022-12-06T12:18:37.185Z,5.57
2022-12-06T12:21:06.462Z,6.10
2022-12-06T12:23:37.236Z,6.47
2022-12-06T12:26:12.780Z,11.53
2022-12-06T12:28:41.111Z,10.77
2022-12-06T12:31:20.340Z,7.20
2022-12-06T12:33:47.209Z,13.13
2022-12-06T12:36:28.660Z,8.60
2022-12-06T12:39:00.471Z,6.10
2022-12-06T12:41:37.555Z,4.83
2022-12-06T12:44:36.378Z,7.23
2022-12-06T12:47:20.591Z,7.43
2022-12-06T12:50:02.870Z,6.40
2022-12-06T12:52:38.394Z,8.10
2022-12-06T12:55:28.696Z,5.77
2022-12-06T12:58:00.442Z,7.63
2022-12-06T13:00:42.000Z,8.37
2022-12-06T13:03:50.095Z,7.67
2022-12-06T13:06:40.059Z,8.37
2022-12-06T13:09:14.722Z,4.77
2022-12-06T13:11:47.752Z,4.43
2022-12-06T13:14:20.155Z,5.23
2022-12-06T13:16:51.937Z,10.40
2022-12-06T13:19:23.690Z,2.93
2022-12-06T13:21:51.430Z,3.27
2022-12-06T13:24:25.088Z,4.77
2022-12-06T13:26:59.701Z,4.43
2022-12-06T13:29:40.707Z,8.93
2022-12-06T13:32:20.223Z,9.43
2022-12-06T13:34:57.398Z,7.20
2022-12-06T13:37:28.869Z,4.73
2022-12-06T13:39:56.475Z,5.23
2022-12-06T13:42:41.700Z,3.40
2022-12-06T13:45:39.730Z,6.40
2022-12-06T13:48:24.990Z,6.53
2022-12-06T13:50:57.014Z,4.63
2022-12-06T13:53:26.191Z,4.67
2022-12-06T13:56:01.004Z,12.60
2022-12-06T13:58:27.730Z,6.87
2022-12-06T14:00:56.334Z,10.37
2022-12-06T14:03:25.795Z,7.53
2022-12-06T14:06:12.083Z,5.60
2022-12-06T14:08:46.983Z,5.27
2022-12-06T14:11:17.003Z,4.43
2022-12-06T14:14:16.863Z,3.83
2022-12-06T14:16:53.234Z,2.50
2022-12-06T14:19:31.734Z,3.80
2022-12-06T14:22:12.935Z,7.37
2022-12-06T14:24:42.474Z,7.20
2022-12-06T14:27:15.312Z,5.07
2022-12-06T14:29:43.832Z,5.17
2022-12-06T14:32:11.274Z,4.07
2022-12-06T14:34:37.979Z,6.60
2022-12-06T14:37:21.603Z,4.50
2022-12-06T14:39:53.210Z,4.03
2022-12-06T14:42:39.291Z,4.97
2022-12-06T14:45:14.131Z,10.50
2022-12-06T14:47:42.051Z,8.87
2022-12-06T14:50:25.436Z,4.57
2022-12-06T14:53:13.083Z,7.10
2022-12-06T14:55:58.315Z,7.03
2022-12-06T14:58:31.697Z,8.13
2022-12-06T15:01:18.892Z,7.80
2022-12-06T15:04:00.792Z,9.87
2022-12-06T15:06:31.218Z,5.10
2022-12-06T15:08:57.988Z,5.57
2022-12-06T15:11:50.865Z,6.40
2022-12-06T15:14:29.286Z,7.10
2022-12-06T15:16:57.647Z,3.90
2022-12-06T15:19:24.527Z,6.23
2022-12-06T15:21:53.114Z,4.83
2022-12-06T15:24:22.084Z,8.93
2022-12-06T15:26:49.378Z,5.00
2022-12-06T15:29:17.023Z,4.60
2022-12-06T15:31:46.235Z,6.67
2022-12-06T15:34:30.663Z,7.57
2022-12-06T15:37:30.306Z,8.30
2022-12-06T15:39:46.604Z,4.30
2022-12-06T15:42:21.855Z,6.67
2022-12-06T15:44:50.321Z,6.37
2022-12-06T15:47:18.621Z,7.50
2022-12-06T15:49:45.582Z,8.33
2022-12-06T15:52:17.942Z,8.40
2022-12-06T15:54:45.384Z,5.10
2022-12-06T15:57:12.211Z,4.50
2022-12-06T15:59:38.962Z,7.87
2022-12-06T16:02:16.780Z,9.17
2022-12-06T16:04:44.731Z,8.80
2022-12-06T16:07:13.448Z,6.70
2022-12-06T16:09:40.191Z,7.70
2022-12-06T16:12:07.181Z,6.53
2022-12-06T16:14:34.394Z,9.73
2022-12-06T16:17:01.233Z,8.83
2022-12-06T16:19:47.892Z,9.43
2022-12-06T16:22:14.739Z,10.10
2022-12-06T16:24:41.558Z,9.93
2022-12-06T16:27:08.628Z,6.40
2022-12-06T16:29:35.576Z,7.83
2022-12-06T16:32:02.379Z,8.70
2022-12-06T16:34:30.080Z,8.00
2022-12-06T16:37:02.693Z,7.57
2022-12-06T16:39:31.477Z,11.37
2022-12-06T16:41:58.375Z,7.53
2022-12-06T16:44:25.396Z,11.80
2022-12-06T16:46:52.318Z,5.30
2022-12-06T16:52:14.840Z,7.17
2022-12-06T16:54:42.266Z,7.67
2022-12-06T16:57:13.502Z,9.60
2022-12-06T16:59:43.069Z,9.00
2022-12-06T17:02:34.028Z,12.70
2022-12-06T17:05:06.250Z,10.07
2022-12-06T17:07:38.957Z,6.97
2022-12-06T17:10:08.561Z,7.63
2022-12-06T17:12:35.335Z,11.93
2022-12-06T17:15:02.586Z,9.13
2022-12-06T17:17:29.641Z,11.17
2022-12-06T17:19:56.443Z,12.37
2022-12-06T17:22:24.098Z,16.03
2022-12-06T17:24:51.001Z,18.50
2022-12-06T17:27:18.027Z,11.67
2022-12-06T17:29:45.524Z,14.40
2022-12-06T17:32:13.113Z,9.43
2022-12-06T17:34:40.139Z,11.33
2022-12-06T17:37:06.958Z,13.17
2022-12-06T17:39:34.182Z,17.70
2022-12-06T17:42:19.518Z,13.07
2022-12-06T17:44:46.503Z,17.77
2022-12-06T17:47:13.244Z,15.87
2022-12-06T17:49:40.073Z,13.50
2022-12-06T17:52:06.969Z,14.57
2022-12-06T17:54:33.918Z,10.37
2022-12-06T17:57:00.849Z,12.10
2022-12-06T17:59:30.347Z,13.37
2022-12-06T18:02:17.116Z,12.13
2022-12-06T18:04:45.550Z,10.03
2022-12-06T18:07:13.309Z,10.83
2022-12-06T18:09:40.501Z,17.57
2022-12-06T18:12:12.871Z,48.17
2022-12-06T18:14:39.637Z,30.83
2022-12-06T18:17:07.037Z,40.63
2022-12-06T18:19:34.272Z,69.30
2022-12-06T18:22:00.986Z,51.87
2022-12-06T18:24:33.549Z,26.37
2022-12-06T18:27:02.114Z,17.77
2022-12-06T18:29:29.908Z,16.90
2022-12-06T18:31:57.502Z,17.33
2022-12-06T18:34:24.684Z,17.37
2022-12-06T18:36:51.832Z,15.00
2022-12-06T18:39:24.485Z,15.83
2022-12-06T18:41:53.134Z,17.10
2022-12-06T18:44:19.963Z,16.03
2022-12-06T18:46:46.856Z,17.47
2022-12-06T18:49:14.094Z,14.47
2022-12-06T18:51:41.005Z,17.53
2022-12-06T18:54:08.649Z,10.33
2022-12-06T18:56:36.051Z,9.83
2022-12-06T18:59:06.249Z,11.63
2022-12-06T19:01:36.279Z,16.73
2022-12-06T19:04:05.626Z,15.27
2022-12-06T19:06:34.826Z,14.87
2022-12-06T19:09:05.064Z,14.70
2022-12-06T19:11:31.950Z,11.73
2022-12-06T19:14:01.882Z,10.67
2022-12-06T19:16:34.088Z,12.10
2022-12-06T19:19:02.259Z,12.63
2022-12-06T19:21:31.935Z,13.23
2022-12-06T19:23:58.893Z,14.10
2022-12-06T19:26:27.187Z,15.67
2022-12-06T19:28:54.415Z,21.63
2022-12-06T19:31:23.091Z,12.37
2022-12-06T19:33:51.498Z,14.30
2022-12-06T19:36:28.177Z,15.37
2022-12-06T19:39:00.196Z,13.53
2022-12-06T19:41:27.708Z,15.03
2022-12-06T19:44:13.614Z,13.40
2022-12-06T19:46:43.188Z,14.60
2022-12-06T19:49:11.921Z,15.37
2022-12-06T19:51:41.272Z,16.97
2022-12-06T19:54:08.855Z,15.67
2022-12-06T19:56:36.390Z,14.37
2022-12-06T19:59:11.316Z,13.70
2022-12-06T20:01:44.338Z,14.50
2022-12-06T20:04:23.057Z,15.53
2022-12-06T20:06:51.108Z,17.07
2022-12-06T20:09:21.886Z,12.97
2022-12-06T20:12:04.254Z,12.53
2022-12-06T20:14:41.914Z,10.93
2022-12-06T20:17:14.587Z,13.03
2022-12-06T20:19:51.495Z,10.60
2022-12-06T20:22:19.832Z,10.50
2022-12-06T20:24:46.760Z,11.30
2022-12-06T20:27:13.515Z,15.57
2022-12-06T20:29:40.439Z,12.87
2022-12-06T20:32:07.785Z,11.73
2022-12-06T20:34:35.163Z,11.73
2022-12-06T20:37:04.426Z,11.53
2022-12-06T20:39:35.867Z,12.30
2022-12-06T20:42:05.191Z,12.57
2022-12-06T20:44:32.155Z,19.13
2022-12-06T20:46:59.309Z,21.13
2022-12-06T20:49:26.057Z,52.47
2022-12-06T20:51:53.774Z,28.73
2022-12-06T20:54:21.477Z,19.07
2022-12-06T20:56:51.598Z,14.00
2022-12-06T20:59:18.971Z,12.73
2022-12-06T21:01:45.992Z,16.33
2022-12-06T21:04:13.916Z,13.80
2022-12-06T21:06:41.364Z,13.67
2022-12-06T21:09:08.721Z,13.23
2022-12-06T21:11:35.496Z,11.80
2022-12-06T21:14:03.596Z,11.73
2022-12-06T21:16:32.092Z,11.33
2022-12-06T21:19:04.861Z,11.67
2022-12-06T21:21:34.592Z,17.27
2022-12-06T21:24:03.397Z,12.10
2022-12-06T21:26:30.620Z,13.70
2022-12-06T21:28:57.539Z,13.47
2022-12-06T21:31:29.380Z,11.00
2022-12-06T21:33:57.172Z,16.00
2022-12-06T21:36:24.629Z,22.03
2022-12-06T21:38:51.828Z,17.87
2022-12-06T21:41:18.841Z,15.40
2022-12-06T21:43:45.859Z,14.63
2022-12-06T21:46:24.578Z,15.17
2022-12-06T21:48:53.115Z,12.53
2022-12-06T21:51:20.552Z,13.50
2022-12-06T21:53:47.875Z,14.73
2022-12-06T21:56:18.742Z,15.93
2022-12-06T21:58:46.231Z,12.10
2022-12-06T22:01:18.802Z,16.20
2022-12-06T22:03:49.999Z,11.63
2022-12-06T22:06:17.370Z,13.27
2022-12-06T22:08:45.883Z,22.37
2022-12-06T22:11:15.854Z,18.57
2022-12-06T22:13:42.809Z,12.17
2022-12-06T22:16:11.420Z,11.53
2022-12-06T22:18:44.882Z,12.07
2022-12-06T22:21:14.867Z,9.73
2022-12-06T22:23:41.903Z,12.20
2022-12-06T22:26:10.844Z,10.40
2022-12-06T22:28:37.595Z,12.93
2022-12-06T22:31:12.133Z,8.57
2022-12-06T22:33:39.698Z,8.90
2022-12-06T22:36:07.402Z,15.60
2022-12-06T22:38:34.414Z,11.43
2022-12-06T22:41:01.853Z,12.33
2022-12-06T22:43:29.509Z,10.37
2022-12-06T22:46:02.322Z,10.57
2022-12-06T22:48:29.635Z,10.10
2022-12-06T22:51:06.055Z,11.07
2022-12-06T22:53:32.811Z,10.83
2022-12-06T22:56:00.361Z,15.27
2022-12-06T22:58:27.042Z,9.47
2022-12-06T23:00:53.763Z,16.17
2022-12-06T23:03:20.510Z,9.47
2022-12-06T23:05:47.226Z,8.00
2022-12-06T23:08:14.088Z,7.03
2022-12-06T23:10:41.054Z,10.73
2022-12-06T23:13:07.797Z,14.40
2022-12-06T23:15:34.491Z,12.40
2022-12-06T23:18:01.203Z,9.00
2022-12-06T23:20:27.988Z,11.07
2022-12-06T23:22:54.784Z,13.43
2022-12-06T23:25:21.815Z,14.60
2022-12-06T23:27:48.549Z,12.40
2022-12-06T23:30:15.581Z,12.93
2022-12-06T23:32:42.270Z,10.30
2022-12-06T23:35:09.167Z,10.30
2022-12-06T23:37:35.877Z,10.00
2022-12-06T23:40:03.109Z,12.90
2022-12-06T23:42:30.118Z,10.97
2022-12-06T23:44:56.825Z,12.23
2022-12-06T23:47:23.566Z,14.03
2022-12-06T23:49:50.346Z,17.20
2022-12-06T23:52:17.063Z,10.93
2022-12-06T23:54:43.790Z,9.53
2022-12-06T23:57:11.519Z,12.33
2022-12-06T23:59:38.228Z,10.17
